createdAt,value
2024-02-29T00:00:02.020Z,28.20
2024-02-29T00:03:11.136Z,22.52
2024-02-29T00:06:13.580Z,23.83
2024-02-29T00:09:16.117Z,27.97
2024-02-29T00:12:18.948Z,23.38
2024-02-29T00:15:21.581Z,23.38
2024-02-29T00:18:23.998Z,22.38
2024-02-29T00:21:26.514Z,18.17
2024-02-29T00:24:29.319Z,18.60
2024-02-29T00:27:34.612Z,21.40
2024-02-29T00:30:37.203Z,23.83
2024-02-29T00:33:40.923Z,18.33
2024-02-29T00:36:43.420Z,17.15
2024-02-29T00:39:45.880Z,29.67
2024-02-29T00:42:48.566Z,19.92
2024-02-29T00:45:51.507Z,16.67
2024-02-29T00:48:54.104Z,22.50
2024-02-29T00:51:56.572Z,19.45
2024-02-29T00:54:59.069Z,17.80
2024-02-29T00:58:01.492Z,20.92
2024-02-29T01:01:04.359Z,19.43
2024-02-29T01:04:07.124Z,20.58
2024-02-29T01:07:09.717Z,23.65
2024-02-29T01:10:13.037Z,20.83
2024-02-29T01:13:16.193Z,23.02
2024-02-29T01:16:18.756Z,23.45
2024-02-29T01:19:21.249Z,26.10
2024-02-29T01:22:23.791Z,26.73
2024-02-29T01:25:26.526Z,20.90
2024-02-29T01:28:28.915Z,18.95
2024-02-29T01:31:31.443Z,21.53
2024-02-29T01:34:35.298Z,24.08
2024-02-29T01:37:37.717Z,21.20
2024-02-29T01:40:40.124Z,16.10
2024-02-29T01:43:51.788Z,21.20
2024-02-29T01:46:54.654Z,20.90
2024-02-29T01:50:00.413Z,17.48
2024-02-29T01:53:02.877Z,19.60
2024-02-29T01:56:05.782Z,28.15
2024-02-29T01:59:12.297Z,25.25
2024-02-29T02:02:14.837Z,18.60
2024-02-29T02:05:17.374Z,17.65
2024-02-29T02:08:19.971Z,20.23
2024-02-29T02:11:22.525Z,18.97
2024-02-29T02:14:25.202Z,13.63
2024-02-29T02:17:27.749Z,18.00
2024-02-29T02:20:30.500Z,13.63
2024-02-29T02:23:33.206Z,24.63
2024-02-29T02:26:35.781Z,13.88
2024-02-29T02:29:38.298Z,14.10
2024-02-29T02:32:41.426Z,18.37
2024-02-29T02:35:43.942Z,15.27
2024-02-29T02:38:46.401Z,14.27
2024-02-29T02:41:49.412Z,14.97
2024-02-29T02:44:51.985Z,15.02
2024-02-29T02:47:54.684Z,16.48
2024-02-29T02:50:57.247Z,18.60
2024-02-29T02:53:59.715Z,12.15
2024-02-29T02:57:02.236Z,15.32
2024-02-29T03:00:06.464Z,14.50
2024-02-29T03:03:10.394Z,12.13
2024-02-29T03:06:15.261Z,13.40
2024-02-29T03:09:17.824Z,12.65
2024-02-29T03:12:20.323Z,15.13
2024-02-29T03:15:22.821Z,14.32
2024-02-29T03:18:25.214Z,18.20
2024-02-29T03:21:29.271Z,12.32
2024-02-29T03:24:31.871Z,15.43
2024-02-29T03:27:34.548Z,15.55
2024-02-29T03:30:37.013Z,16.02
2024-02-29T03:33:39.702Z,15.57
2024-02-29T03:36:42.271Z,13.32
2024-02-29T03:39:45.502Z,10.55
2024-02-29T03:42:48.037Z,13.37
2024-02-29T03:45:50.546Z,11.82
2024-02-29T03:48:53.112Z,13.10
2024-02-29T03:51:55.548Z,15.02
2024-02-29T03:54:58.049Z,13.52
2024-02-29T03:58:00.596Z,14.95
2024-02-29T04:01:03.282Z,16.88
2024-02-29T04:04:06.850Z,16.20
2024-02-29T04:07:09.411Z,12.02
2024-02-29T04:10:12.664Z,13.23
2024-02-29T04:13:15.718Z,15.30
2024-02-29T04:16:18.426Z,12.63
2024-02-29T04:19:21.691Z,15.48
2024-02-29T04:22:24.566Z,11.27
2024-02-29T04:25:28.030Z,12.55
2024-02-29T04:28:30.469Z,14.40
2024-02-29T04:31:32.895Z,11.68
2024-02-29T04:34:35.312Z,14.37
2024-02-29T04:37:38.591Z,12.07
2024-02-29T04:40:41.016Z,12.02
2024-02-29T04:43:43.457Z,12.33
2024-02-29T04:46:45.860Z,18.55
2024-02-29T04:49:48.367Z,12.48
2024-02-29T04:52:50.861Z,16.13
2024-02-29T04:55:53.426Z,12.48
2024-02-29T04:58:55.863Z,16.92
2024-02-29T05:01:59.050Z,13.23
2024-02-29T05:05:01.620Z,17.37
2024-02-29T05:08:04.746Z,18.15
2024-02-29T05:11:10.887Z,13.15
2024-02-29T05:14:13.349Z,16.73
2024-02-29T05:17:16.041Z,11.57
2024-02-29T05:20:18.416Z,24.35
2024-02-29T05:23:20.824Z,13.40
2024-02-29T05:26:23.415Z,17.40
2024-02-29T05:29:26.583Z,15.60
2024-02-29T05:32:32.060Z,12.77
2024-02-29T05:35:34.701Z,16.47
2024-02-29T05:38:37.334Z,17.73
2024-02-29T05:41:40.475Z,14.73
2024-02-29T05:44:42.986Z,18.47
2024-02-29T05:47:45.655Z,20.73
2024-02-29T05:50:48.326Z,15.23
2024-02-29T05:53:50.844Z,15.95
2024-02-29T05:56:55.177Z,14.38
2024-02-29T05:59:58.025Z,16.55
2024-02-29T06:03:00.482Z,19.48
2024-02-29T06:06:03.126Z,22.63
2024-02-29T06:09:05.601Z,16.83
2024-02-29T06:12:08.400Z,14.27
2024-02-29T06:15:12.133Z,16.23
2024-02-29T06:18:15.120Z,14.52
2024-02-29T06:21:17.646Z,16.08
2024-02-29T06:24:20.321Z,17.70
2024-02-29T06:27:27.992Z,13.75
2024-02-29T06:30:33.539Z,16.90
2024-02-29T06:33:37.237Z,15.23
2024-02-29T06:36:39.906Z,16.00
2024-02-29T06:39:42.564Z,10.75
2024-02-29T06:42:45.647Z,25.20
2024-02-29T06:45:49.967Z,20.43
2024-02-29T06:48:52.525Z,13.50
2024-02-29T06:51:55.113Z,18.73
2024-02-29T06:54:57.626Z,11.93
2024-02-29T06:58:00.400Z,13.68
2024-02-29T07:01:03.780Z,15.32
2024-02-29T07:04:08.354Z,12.38
2024-02-29T07:07:11.262Z,21.60
2024-02-29T07:10:14.137Z,17.50
2024-02-29T07:13:16.733Z,20.67
2024-02-29T07:16:21.478Z,15.97
2024-02-29T07:19:24.042Z,15.68
2024-02-29T07:22:26.584Z,16.83
2024-02-29T07:25:32.457Z,17.17
2024-02-29T07:28:34.862Z,16.55
2024-02-29T07:31:41.627Z,16.52
2024-02-29T07:34:44.222Z,12.38
2024-02-29T07:37:46.904Z,17.07
2024-02-29T07:40:49.353Z,16.25
2024-02-29T07:43:51.777Z,13.77
2024-02-29T07:46:54.411Z,18.57
2024-02-29T07:49:59.198Z,16.63
2024-02-29T07:53:01.621Z,18.20
2024-02-29T07:56:08.153Z,19.83
2024-02-29T07:59:11.183Z,17.73
2024-02-29T08:02:13.742Z,20.92
2024-02-29T08:05:19.220Z,15.90
2024-02-29T08:08:22.508Z,21.53
2024-02-29T08:11:27.150Z,21.15
2024-02-29T08:14:30.249Z,19.95
2024-02-29T08:17:35.716Z,26.10
2024-02-29T08:20:39.669Z,21.08
2024-02-29T08:23:42.125Z,24.40
2024-02-29T08:26:47.119Z,24.25
2024-02-29T08:29:49.853Z,19.10
2024-02-29T08:32:52.342Z,20.83
2024-02-29T08:35:54.928Z,17.33
2024-02-29T08:38:57.373Z,18.90
2024-02-29T08:42:02.365Z,18.92
2024-02-29T08:45:05.450Z,18.58
2024-02-29T08:48:08.183Z,17.93
2024-02-29T08:51:10.591Z,20.70
2024-02-29T08:54:13.146Z,17.30
2024-02-29T08:57:16.018Z,20.83
2024-02-29T09:00:18.880Z,25.52
2024-02-29T09:03:21.791Z,19.58
2024-02-29T09:06:24.283Z,26.88
2024-02-29T09:09:29.206Z,16.40
2024-02-29T09:12:31.714Z,21.58
2024-02-29T09:15:34.457Z,27.15
2024-02-29T09:18:37.012Z,24.63
2024-02-29T09:21:41.686Z,22.50
2024-02-29T09:24:44.273Z,18.70
2024-02-29T09:27:46.771Z,25.90
2024-02-29T09:30:49.438Z,23.13
2024-02-29T09:33:54.747Z,19.48
2024-02-29T09:36:57.484Z,17.98
2024-02-29T09:40:01.996Z,20.10
2024-02-29T09:43:06.613Z,24.90
2024-02-29T09:46:11.530Z,21.45
2024-02-29T09:49:15.584Z,19.10
2024-02-29T09:52:18.509Z,22.10
2024-02-29T09:55:22.820Z,20.35
2024-02-29T09:58:27.390Z,25.77
2024-02-29T10:01:31.258Z,18.77
2024-02-29T10:04:34.112Z,20.95
2024-02-29T10:07:45.984Z,19.98
2024-02-29T10:10:49.680Z,23.20
2024-02-29T10:13:54.836Z,25.73
2024-02-29T10:16:58.104Z,19.92
2024-02-29T10:20:00.641Z,20.60
2024-02-29T10:23:11.094Z,21.23
2024-02-29T10:26:13.678Z,21.08
2024-02-29T10:29:18.139Z,21.48
2024-02-29T10:32:21.528Z,22.25
2024-02-29T10:35:28.811Z,27.50
2024-02-29T10:43:03.637Z,19.80
2024-02-29T10:46:07.249Z,17.52
2024-02-29T10:49:27.908Z,12.23
2024-02-29T10:52:38.735Z,17.73
2024-02-29T10:55:52.618Z,13.38
2024-02-29T10:59:04.460Z,17.90
2024-02-29T11:02:07.226Z,16.27
2024-02-29T11:05:10.868Z,11.48
2024-02-29T11:08:14.101Z,16.50
2024-02-29T11:11:21.354Z,15.60
2024-02-29T11:14:23.925Z,16.27
2024-02-29T11:17:32.428Z,14.80
2024-02-29T11:20:35.305Z,18.70
2024-02-29T11:23:42.970Z,12.53
2024-02-29T11:26:45.406Z,17.58
2024-02-29T11:29:59.762Z,17.95
2024-02-29T11:33:14.167Z,16.17
2024-02-29T11:36:17.053Z,14.30
2024-02-29T11:39:23.526Z,16.60
2024-02-29T11:42:25.991Z,28.42
2024-02-29T11:45:28.734Z,15.07
2024-02-29T11:48:31.337Z,14.98
2024-02-29T11:51:33.797Z,19.15
2024-02-29T11:54:36.744Z,15.23
2024-02-29T11:57:39.347Z,17.00
2024-02-29T12:00:41.937Z,19.45
2024-02-29T12:03:46.378Z,17.30
2024-02-29T12:06:49.475Z,16.40
2024-02-29T12:09:52.693Z,16.75
2024-02-29T12:12:56.714Z,17.45
2024-02-29T12:15:59.853Z,15.97
2024-02-29T12:19:03.097Z,12.57
2024-02-29T12:22:12.645Z,23.80
2024-02-29T12:25:15.734Z,20.30
2024-02-29T12:28:19.003Z,19.23
2024-02-29T12:31:22.532Z,14.35
2024-02-29T12:34:27.677Z,19.67
2024-02-29T12:40:34.142Z,15.63
2024-02-29T12:43:40.212Z,16.92
2024-02-29T12:46:42.610Z,15.90
2024-02-29T12:49:45.110Z,15.93
2024-02-29T12:52:51.446Z,16.13
2024-02-29T12:55:54.503Z,16.77
2024-02-29T12:58:57.015Z,14.95
2024-02-29T13:02:01.012Z,14.52
2024-02-29T13:05:04.372Z,15.05
2024-02-29T13:08:10.242Z,15.43
2024-02-29T13:11:12.731Z,19.27
2024-02-29T13:14:15.858Z,22.23
2024-02-29T13:17:18.452Z,20.17
2024-02-29T13:20:20.908Z,18.10
2024-02-29T13:23:23.482Z,17.15
2024-02-29T13:26:25.960Z,30.13
2024-02-29T13:29:29.138Z,31.45
2024-02-29T13:32:32.078Z,19.52
2024-02-29T13:35:34.595Z,22.17
2024-02-29T13:38:37.159Z,19.80
2024-02-29T13:41:39.726Z,30.88
2024-02-29T13:44:44.481Z,29.38
2024-02-29T13:47:52.509Z,23.10
2024-02-29T13:50:55.452Z,23.17
2024-02-29T13:54:00.451Z,23.42
2024-02-29T13:57:03.034Z,24.10
2024-02-29T14:00:10.437Z,22.70
2024-02-29T14:03:16.744Z,19.08
2024-02-29T14:06:21.704Z,16.00
2024-02-29T14:09:25.044Z,17.33
2024-02-29T14:12:28.731Z,15.93
2024-02-29T14:15:31.314Z,18.55
2024-02-29T14:18:34.562Z,18.30
2024-02-29T14:21:37.357Z,19.80
2024-02-29T14:24:40.224Z,28.95
2024-02-29T14:27:43.505Z,33.40
2024-02-29T14:30:46.374Z,20.27
2024-02-29T14:33:51.227Z,22.90
2024-02-29T14:36:54.608Z,22.83
2024-02-29T14:39:57.296Z,21.60
2024-02-29T14:43:00.157Z,28.90
2024-02-29T14:46:03.212Z,23.08
2024-02-29T14:49:06.645Z,23.23
2024-02-29T14:52:09.186Z,24.27
2024-02-29T14:55:12.019Z,24.60
2024-02-29T14:58:16.487Z,20.33
2024-02-29T15:01:19.977Z,23.65
2024-02-29T15:04:22.775Z,26.05
2024-02-29T15:07:28.593Z,27.25
2024-02-29T15:10:31.436Z,31.55
2024-02-29T15:13:34.113Z,32.60
2024-02-29T15:16:36.876Z,46.53
2024-02-29T15:19:41.185Z,35.43
2024-02-29T15:22:45.258Z,32.70
2024-02-29T15:25:49.058Z,34.15
2024-02-29T15:28:52.582Z,35.10
2024-02-29T15:31:58.113Z,33.70
2024-02-29T15:35:00.716Z,26.35
2024-02-29T15:38:03.353Z,46.97
2024-02-29T15:41:05.785Z,39.25
2024-02-29T15:44:08.270Z,32.80
2024-02-29T15:47:10.910Z,36.90
2024-02-29T15:50:15.625Z,38.43
2024-02-29T15:53:18.264Z,38.65
2024-02-29T15:56:20.779Z,39.15
2024-02-29T15:59:23.428Z,42.37
2024-02-29T16:02:27.250Z,41.65
2024-02-29T16:05:30.795Z,36.63
2024-02-29T16:08:35.821Z,34.05
2024-02-29T16:11:38.522Z,42.60
2024-02-29T16:14:44.491Z,31.30
2024-02-29T16:17:47.074Z,44.22
2024-02-29T16:20:52.629Z,55.13
2024-02-29T16:23:55.301Z,56.33
2024-02-29T16:26:57.938Z,44.58
2024-02-29T16:30:00.619Z,45.17
2024-02-29T16:33:06.349Z,37.00
2024-02-29T16:36:10.964Z,21.13
2024-02-29T16:39:13.793Z,32.53
2024-02-29T16:42:16.665Z,22.50
2024-02-29T16:45:19.602Z,26.15
2024-02-29T16:48:22.233Z,26.52
2024-02-29T16:51:24.828Z,19.30
2024-02-29T16:54:27.547Z,27.27
2024-02-29T16:57:32.935Z,20.05
2024-02-29T17:00:36.669Z,23.10
2024-02-29T17:03:39.461Z,24.15
2024-02-29T17:06:42.668Z,27.23
2024-02-29T17:09:46.434Z,26.92
2024-02-29T17:12:49.277Z,29.17
2024-02-29T17:15:52.095Z,35.45
2024-02-29T17:18:55.008Z,37.20
2024-02-29T17:21:57.635Z,40.73
2024-02-29T17:25:00.290Z,48.45
2024-02-29T17:28:03.198Z,41.80
2024-02-29T17:31:06.274Z,48.97
2024-02-29T17:34:08.860Z,36.45
2024-02-29T17:37:11.516Z,45.63
2024-02-29T17:40:14.326Z,39.78
2024-02-29T17:43:18.525Z,23.38
2024-02-29T17:46:21.568Z,28.02
2024-02-29T17:49:25.161Z,30.55
2024-02-29T17:52:28.405Z,33.00
2024-02-29T17:55:31.050Z,33.53
2024-02-29T17:58:33.998Z,34.13
2024-02-29T18:01:36.624Z,28.53
2024-02-29T18:04:39.771Z,33.13
2024-02-29T18:07:47.664Z,36.30
2024-02-29T18:10:57.801Z,41.35
2024-02-29T18:14:01.995Z,38.25
2024-02-29T18:17:04.945Z,64.15
2024-02-29T18:20:08.760Z,66.70
2024-02-29T18:23:13.513Z,68.47
2024-02-29T18:26:16.576Z,64.00
2024-02-29T18:29:19.243Z,66.82
2024-02-29T18:32:22.070Z,59.73
2024-02-29T18:35:24.600Z,54.67
2024-02-29T18:38:28.985Z,141.25
2024-02-29T18:41:35.542Z,82.30
2024-02-29T18:44:40.818Z,65.32
2024-02-29T18:47:43.588Z,63.95
2024-02-29T18:50:46.484Z,72.07
2024-02-29T18:53:49.261Z,80.17
2024-02-29T18:56:51.772Z,85.78
2024-02-29T18:59:54.431Z,84.38
2024-02-29T19:02:56.877Z,92.33
2024-02-29T19:06:00.157Z,82.25
2024-02-29T19:09:03.389Z,76.85
2024-02-29T19:12:07.277Z,64.38
2024-02-29T19:15:10.570Z,72.80
2024-02-29T19:18:13.489Z,96.93
2024-02-29T19:21:16.300Z,107.88
2024-02-29T19:24:18.921Z,110.37
2024-02-29T19:27:23.287Z,79.47
2024-02-29T19:30:26.185Z,80.40
2024-02-29T19:33:28.980Z,85.13
2024-02-29T19:36:32.115Z,106.03
2024-02-29T19:39:36.269Z,89.63
2024-02-29T19:42:41.555Z,99.60
2024-02-29T19:45:45.543Z,105.65
2024-02-29T19:48:48.174Z,81.60
2024-02-29T19:51:50.825Z,79.30
2024-02-29T19:54:53.715Z,69.37
2024-02-29T19:57:56.623Z,73.00
2024-02-29T20:01:04.136Z,70.10
2024-02-29T20:04:06.993Z,70.27
2024-02-29T20:07:10.041Z,78.32
2024-02-29T20:10:12.683Z,66.05
2024-02-29T20:13:15.493Z,63.58
2024-02-29T20:16:18.400Z,66.00
2024-02-29T20:19:21.057Z,69.50
2024-02-29T20:22:23.964Z,67.70
2024-02-29T20:25:27.663Z,55.97
2024-02-29T20:28:31.878Z,57.40
2024-02-29T20:31:34.954Z,62.67
2024-02-29T20:34:37.732Z,63.90
2024-02-29T20:37:40.203Z,68.88
2024-02-29T20:40:43.301Z,69.18
2024-02-29T20:43:46.021Z,69.25
2024-02-29T20:46:48.598Z,68.82
2024-02-29T20:49:51.263Z,65.57
2024-02-29T20:52:53.864Z,71.80
2024-02-29T20:55:56.350Z,94.03
2024-02-29T20:58:58.946Z,82.63
2024-02-29T21:02:01.440Z,72.80
2024-02-29T21:05:07.402Z,71.87
2024-02-29T21:08:09.895Z,82.70
2024-02-29T21:11:12.351Z,83.20
2024-02-29T21:14:14.857Z,83.32
2024-02-29T21:17:17.304Z,75.72
2024-02-29T21:20:20.059Z,74.95
2024-02-29T21:23:23.138Z,84.05
2024-02-29T21:26:26.970Z,75.37
2024-02-29T21:29:29.372Z,79.03
2024-02-29T21:32:32.455Z,82.28
2024-02-29T21:35:35.049Z,71.50
2024-02-29T21:38:37.521Z,81.50
2024-02-29T21:41:39.987Z,75.20
2024-02-29T21:44:42.622Z,75.70
2024-02-29T21:47:45.041Z,70.22
2024-02-29T21:50:47.480Z,63.55
2024-02-29T21:53:50.709Z,71.57
2024-02-29T21:56:53.482Z,73.67
2024-02-29T21:59:55.938Z,63.50
2024-02-29T22:02:58.384Z,57.35
2024-02-29T22:06:00.832Z,53.33
2024-02-29T22:09:03.457Z,51.40
2024-02-29T22:12:06.338Z,54.70
2024-02-29T22:15:09.304Z,42.28
2024-02-29T22:18:11.804Z,42.42
2024-02-29T22:21:14.242Z,51.75
2024-02-29T22:24:17.170Z,40.72
2024-02-29T22:27:19.595Z,51.07
2024-02-29T22:30:22.475Z,45.97
2024-02-29T22:33:24.903Z,49.25
2024-02-29T22:36:28.478Z,47.03
2024-02-29T22:39:30.996Z,45.53
2024-02-29T22:42:33.585Z,42.13
2024-02-29T22:45:36.045Z,44.28
2024-02-29T22:48:38.473Z,51.97
2024-02-29T22:51:41.097Z,40.03
2024-02-29T22:54:43.760Z,45.90
2024-02-29T22:57:46.549Z,47.23
2024-02-29T23:00:54.405Z,42.53
2024-02-29T23:03:57.409Z,41.90
2024-02-29T23:07:00.048Z,47.50
2024-02-29T23:10:03.467Z,52.15
2024-02-29T23:13:09.332Z,58.20
2024-02-29T23:16:12.286Z,60.00
2024-02-29T23:19:15.182Z,40.35
2024-02-29T23:22:17.627Z,44.90
2024-02-29T23:25:23.196Z,43.53
2024-02-29T23:28:26.862Z,47.03
2024-02-29T23:31:29.617Z,38.13
2024-02-29T23:34:32.158Z,43.70
2024-02-29T23:37:34.918Z,47.57
2024-02-29T23:40:37.783Z,43.20
2024-02-29T23:43:40.295Z,40.13
2024-02-29T23:46:42.933Z,38.25
2024-02-29T23:49:45.333Z,39.33
2024-02-29T23:52:47.765Z,36.63
2024-02-29T23:55:50.247Z,37.83
2024-02-29T23:58:52.784Z,36.87
